sensor_id;sensor_type;location;lat;lon;timestamp;temperature;humidity
48648;DHT22;34437;-33.956;151.076;2022-10-17T00:00:38;21.40;61.90
48648;DHT22;34437;-33.956;151.076;2022-10-17T00:03:00;21.40;62.50
48648;DHT22;34437;-33.956;151.076;2022-10-17T00:05:23;21.40;62.50
48648;DHT22;34437;-33.956;151.076;2022-10-17T00:07:46;21.40;62.90
48648;DHT22;34437;-33.956;151.076;2022-10-17T00:10:08;21.40;62.80
48648;DHT22;34437;-33.956;151.076;2022-10-17T00:12:31;21.50;63.10
48648;DHT22;34437;-33.956;151.076;2022-10-17T00:14:54;21.50;63.20
48648;DHT22;34437;-33.956;151.076;2022-10-17T00:17:16;21.50;63.40
48648;DHT22;34437;-33.956;151.076;2022-10-17T00:19:39;21.50;63.20
48648;DHT22;34437;-33.956;151.076;2022-10-17T00:22:01;21.50;63.30
48648;DHT22;34437;-33.956;151.076;2022-10-17T00:24:24;21.50;63.30
48648;DHT22;34437;-33.956;151.076;2022-10-17T00:26:46;21.50;63.30
48648;DHT22;34437;-33.956;151.076;2022-10-17T00:29:09;21.60;63.30
48648;DHT22;34437;-33.956;151.076;2022-10-17T00:31:31;21.60;63.30
48648;DHT22;34437;-33.956;151.076;2022-10-17T00:33:54;21.60;63.40
48648;DHT22;34437;-33.956;151.076;2022-10-17T00:36:22;21.60;63.40
48648;DHT22;34437;-33.956;151.076;2022-10-17T00:38:48;21.60;63.30
48648;DHT22;34437;-33.956;151.076;2022-10-17T00:41:13;21.60;63.30
48648;DHT22;34437;-33.956;151.076;2022-10-17T00:43:54;21.60;63.20
48648;DHT22;34437;-33.956;151.076;2022-10-17T00:46:17;21.60;63.20
48648;DHT22;34437;-33.956;151.076;2022-10-17T00:48:41;21.60;63.20
48648;DHT22;34437;-33.956;151.076;2022-10-17T00:51:05;21.70;63.30
48648;DHT22;34437;-33.956;151.076;2022-10-17T00:53:28;21.70;63.30
48648;DHT22;34437;-33.956;151.076;2022-10-17T00:55:52;21.70;63.40
48648;DHT22;34437;-33.956;151.076;2022-10-17T00:58:16;21.70;63.60
48648;DHT22;34437;-33.956;151.076;2022-10-17T01:00:39;21.70;63.40
48648;DHT22;34437;-33.956;151.076;2022-10-17T01:03:02;21.70;63.40
48648;DHT22;34437;-33.956;151.076;2022-10-17T01:05:25;21.70;63.30
48648;DHT22;34437;-33.956;151.076;2022-10-17T01:07:49;21.70;63.10
48648;DHT22;34437;-33.956;151.076;2022-10-17T01:10:13;21.70;62.80
48648;DHT22;34437;-33.956;151.076;2022-10-17T01:17:51;21.60;61.80
48648;DHT22;34437;-33.956;151.076;2022-10-17T01:26:26;21.60;61.70
48648;DHT22;34437;-33.956;151.076;2022-10-17T01:31:28;21.50;61.70
48648;DHT22;34437;-33.956;151.076;2022-10-17T01:39:19;21.50;61.70
48648;DHT22;34437;-33.956;151.076;2022-10-17T01:41:55;21.40;61.70
48648;DHT22;34437;-33.956;151.076;2022-10-17T01:44:33;21.40;61.70
48648;DHT22;34437;-33.956;151.076;2022-10-17T01:47:07;21.40;61.70
48648;DHT22;34437;-33.956;151.076;2022-10-17T01:49:31;21.40;61.70
48648;DHT22;34437;-33.956;151.076;2022-10-17T01:52:14;21.40;61.70
48648;DHT22;34437;-33.956;151.076;2022-10-17T01:54:46;21.40;61.60
48648;DHT22;34437;-33.956;151.076;2022-10-17T01:59:51;21.40;61.50
48648;DHT22;34437;-33.956;151.076;2022-10-17T02:02:17;21.50;61.50
48648;DHT22;34437;-33.956;151.076;2022-10-17T02:04:41;21.50;61.50
48648;DHT22;34437;-33.956;151.076;2022-10-17T02:07:10;21.50;61.40
48648;DHT22;34437;-33.956;151.076;2022-10-17T02:09:32;21.50;61.40
48648;DHT22;34437;-33.956;151.076;2022-10-17T02:23:11;21.50;61.30
48648;DHT22;34437;-33.956;151.076;2022-10-17T02:25:59;21.50;61.20
48648;DHT22;34437;-33.956;151.076;2022-10-17T02:31:08;21.50;61.30
48648;DHT22;34437;-33.956;151.076;2022-10-17T02:33:41;21.50;61.70
48648;DHT22;34437;-33.956;151.076;2022-10-17T02:36:12;21.50;61.90
48648;DHT22;34437;-33.956;151.076;2022-10-17T02:38:36;21.60;62.00
48648;DHT22;34437;-33.956;151.076;2022-10-17T02:41:01;21.60;62.10
48648;DHT22;34437;-33.956;151.076;2022-10-17T02:43:25;21.60;62.20
48648;DHT22;34437;-33.956;151.076;2022-10-17T02:45:48;21.70;63.00
48648;DHT22;34437;-33.956;151.076;2022-10-17T02:48:37;21.70;62.20
48648;DHT22;34437;-33.956;151.076;2022-10-17T02:51:03;21.70;62.20
48648;DHT22;34437;-33.956;151.076;2022-10-17T02:56:19;21.80;62.30
48648;DHT22;34437;-33.956;151.076;2022-10-17T02:58:45;21.90;62.30
48648;DHT22;34437;-33.956;151.076;2022-10-17T03:01:09;21.90;62.40
48648;DHT22;34437;-33.956;151.076;2022-10-17T03:03:32;21.90;61.80
48648;DHT22;34437;-33.956;151.076;2022-10-17T03:05:55;22.00;62.00
48648;DHT22;34437;-33.956;151.076;2022-10-17T03:08:18;21.90;62.00
48648;DHT22;34437;-33.956;151.076;2022-10-17T03:10:41;22.00;62.30
48648;DHT22;34437;-33.956;151.076;2022-10-17T03:13:03;22.00;62.40
48648;DHT22;34437;-33.956;151.076;2022-10-17T03:15:26;22.00;62.40
48648;DHT22;34437;-33.956;151.076;2022-10-17T03:17:48;22.10;62.50
48648;DHT22;34437;-33.956;151.076;2022-10-17T03:20:11;22.10;62.50
48648;DHT22;34437;-33.956;151.076;2022-10-17T03:22:33;22.20;62.60
48648;DHT22;34437;-33.956;151.076;2022-10-17T03:24:56;22.20;62.40
48648;DHT22;34437;-33.956;151.076;2022-10-17T03:27:19;22.20;62.40
48648;DHT22;34437;-33.956;151.076;2022-10-17T03:29:41;22.30;62.40
48648;DHT22;34437;-33.956;151.076;2022-10-17T03:32:04;22.30;62.40
48648;DHT22;34437;-33.956;151.076;2022-10-17T03:34:27;22.40;62.30
48648;DHT22;34437;-33.956;151.076;2022-10-17T03:36:49;22.40;62.00
48648;DHT22;34437;-33.956;151.076;2022-10-17T03:39:12;22.40;61.90
48648;DHT22;34437;-33.956;151.076;2022-10-17T03:41:34;22.40;62.10
48648;DHT22;34437;-33.956;151.076;2022-10-17T03:43:57;22.50;62.20
48648;DHT22;34437;-33.956;151.076;2022-10-17T03:46:20;22.60;62.00
48648;DHT22;34437;-33.956;151.076;2022-10-17T03:48:42;22.60;62.00
48648;DHT22;34437;-33.956;151.076;2022-10-17T03:51:07;22.60;61.90
48648;DHT22;34437;-33.956;151.076;2022-10-17T03:53:30;22.70;62.40
48648;DHT22;34437;-33.956;151.076;2022-10-17T03:55:53;22.70;61.70
48648;DHT22;34437;-33.956;151.076;2022-10-17T03:58:15;22.70;61.70
48648;DHT22;34437;-33.956;151.076;2022-10-17T04:00:38;22.80;61.60
48648;DHT22;34437;-33.956;151.076;2022-10-17T04:03:00;22.80;61.50
48648;DHT22;34437;-33.956;151.076;2022-10-17T04:05:23;22.80;61.60
48648;DHT22;34437;-33.956;151.076;2022-10-17T04:07:46;22.90;61.50
48648;DHT22;34437;-33.956;151.076;2022-10-17T04:10:08;23.00;61.40
48648;DHT22;34437;-33.956;151.076;2022-10-17T04:12:31;23.00;61.20
48648;DHT22;34437;-33.956;151.076;2022-10-17T04:14:54;23.10;61.10
48648;DHT22;34437;-33.956;151.076;2022-10-17T04:17:16;23.10;60.90
48648;DHT22;34437;-33.956;151.076;2022-10-17T04:19:39;23.20;60.90
48648;DHT22;34437;-33.956;151.076;2022-10-17T04:22:01;23.30;60.90
48648;DHT22;34437;-33.956;151.076;2022-10-17T04:24:24;23.40;60.50
48648;DHT22;34437;-33.956;151.076;2022-10-17T04:26:49;23.50;60.30
48648;DHT22;34437;-33.956;151.076;2022-10-17T04:29:12;23.50;60.20
48648;DHT22;34437;-33.956;151.076;2022-10-17T04:31:34;23.50;60.20
48648;DHT22;34437;-33.956;151.076;2022-10-17T04:33:57;23.60;60.20
48648;DHT22;34437;-33.956;151.076;2022-10-17T04:36:20;23.60;60.20
48648;DHT22;34437;-33.956;151.076;2022-10-17T04:38:43;23.60;60.10
48648;DHT22;34437;-33.956;151.076;2022-10-17T04:41:09;23.70;60.70
48648;DHT22;34437;-33.956;151.076;2022-10-17T04:43:34;23.80;60.00
48648;DHT22;34437;-33.956;151.076;2022-10-17T04:45:57;23.80;59.80
48648;DHT22;34437;-33.956;151.076;2022-10-17T04:48:20;23.90;59.80
48648;DHT22;34437;-33.956;151.076;2022-10-17T04:50:56;24.00;59.60
48648;DHT22;34437;-33.956;151.076;2022-10-17T04:53:19;24.00;59.10
48648;DHT22;34437;-33.956;151.076;2022-10-17T04:55:41;24.10;59.00
48648;DHT22;34437;-33.956;151.076;2022-10-17T04:58:04;24.20;58.90
48648;DHT22;34437;-33.956;151.076;2022-10-17T05:00:26;24.30;58.70
48648;DHT22;34437;-33.956;151.076;2022-10-17T05:02:49;24.40;58.60
48648;DHT22;34437;-33.956;151.076;2022-10-17T05:05:11;24.40;58.60
48648;DHT22;34437;-33.956;151.076;2022-10-17T05:07:34;24.30;58.60
48648;DHT22;34437;-33.956;151.076;2022-10-17T05:09:56;24.30;58.80
48648;DHT22;34437;-33.956;151.076;2022-10-17T05:12:19;24.30;59.10
48648;DHT22;34437;-33.956;151.076;2022-10-17T05:14:42;24.30;58.90
48648;DHT22;34437;-33.956;151.076;2022-10-17T05:17:04;24.30;59.00
48648;DHT22;34437;-33.956;151.076;2022-10-17T05:19:27;24.30;59.10
48648;DHT22;34437;-33.956;151.076;2022-10-17T05:21:49;24.30;59.10
48648;DHT22;34437;-33.956;151.076;2022-10-17T05:24:13;24.30;59.00
48648;DHT22;34437;-33.956;151.076;2022-10-17T05:26:35;24.30;59.10
48648;DHT22;34437;-33.956;151.076;2022-10-17T05:28:59;24.20;59.10
48648;DHT22;34437;-33.956;151.076;2022-10-17T05:31:23;24.20;59.10
48648;DHT22;34437;-33.956;151.076;2022-10-17T05:33:46;24.20;59.10
48648;DHT22;34437;-33.956;151.076;2022-10-17T05:36:09;24.30;58.90
48648;DHT22;34437;-33.956;151.076;2022-10-17T05:38:31;24.30;59.00
48648;DHT22;34437;-33.956;151.076;2022-10-17T05:41:01;24.40;59.00
48648;DHT22;34437;-33.956;151.076;2022-10-17T05:43:24;24.40;58.70
48648;DHT22;34437;-33.956;151.076;2022-10-17T05:45:46;24.50;58.60
48648;DHT22;34437;-33.956;151.076;2022-10-17T05:48:09;24.60;58.30
48648;DHT22;34437;-33.956;151.076;2022-10-17T05:50:32;24.70;58.20
48648;DHT22;34437;-33.956;151.076;2022-10-17T05:52:55;24.70;57.90
48648;DHT22;34437;-33.956;151.076;2022-10-17T05:55:17;24.80;57.70
48648;DHT22;34437;-33.956;151.076;2022-10-17T05:57:40;24.90;57.60
48648;DHT22;34437;-33.956;151.076;2022-10-17T06:00:04;24.90;57.50
48648;DHT22;34437;-33.956;151.076;2022-10-17T06:02:27;25.00;57.30
48648;DHT22;34437;-33.956;151.076;2022-10-17T06:04:49;25.10;57.20
48648;DHT22;34437;-33.956;151.076;2022-10-17T06:07:13;25.10;56.90
48648;DHT22;34437;-33.956;151.076;2022-10-17T06:09:36;25.10;57.00
48648;DHT22;34437;-33.956;151.076;2022-10-17T06:11:58;25.10;56.80
48648;DHT22;34437;-33.956;151.076;2022-10-17T06:14:21;25.20;55.80
48648;DHT22;34437;-33.956;151.076;2022-10-17T06:16:44;25.10;55.30
48648;DHT22;34437;-33.956;151.076;2022-10-17T06:19:06;25.20;55.20
48648;DHT22;34437;-33.956;151.076;2022-10-17T06:21:29;25.10;55.10
48648;DHT22;34437;-33.956;151.076;2022-10-17T06:23:55;25.10;54.90
48648;DHT22;34437;-33.956;151.076;2022-10-17T06:26:17;25.10;54.90
48648;DHT22;34437;-33.956;151.076;2022-10-17T06:28:40;25.10;54.80
48648;DHT22;34437;-33.956;151.076;2022-10-17T06:31:13;25.00;54.80
48648;DHT22;34437;-33.956;151.076;2022-10-17T06:33:37;25.00;54.80
48648;DHT22;34437;-33.956;151.076;2022-10-17T06:35:59;24.90;54.60
48648;DHT22;34437;-33.956;151.076;2022-10-17T06:38:22;24.90;54.80
48648;DHT22;34437;-33.956;151.076;2022-10-17T06:40:45;24.90;55.00
48648;DHT22;34437;-33.956;151.076;2022-10-17T06:43:07;24.90;55.30
48648;DHT22;34437;-33.956;151.076;2022-10-17T06:45:30;24.90;55.40
48648;DHT22;34437;-33.956;151.076;2022-10-17T06:47:53;24.90;55.60
48648;DHT22;34437;-33.956;151.076;2022-10-17T06:50:16;24.90;55.90
48648;DHT22;34437;-33.956;151.076;2022-10-17T06:52:38;24.90;56.00
48648;DHT22;34437;-33.956;151.076;2022-10-17T06:55:01;24.90;56.00
48648;DHT22;34437;-33.956;151.076;2022-10-17T06:57:23;24.90;56.20
48648;DHT22;34437;-33.956;151.076;2022-10-17T06:59:46;24.90;56.10
48648;DHT22;34437;-33.956;151.076;2022-10-17T07:02:09;24.80;56.20
48648;DHT22;34437;-33.956;151.076;2022-10-17T07:04:32;24.80;56.40
48648;DHT22;34437;-33.956;151.076;2022-10-17T07:06:54;24.80;56.50
48648;DHT22;34437;-33.956;151.076;2022-10-17T07:09:17;24.80;56.50
48648;DHT22;34437;-33.956;151.076;2022-10-17T07:11:40;24.80;56.70
48648;DHT22;34437;-33.956;151.076;2022-10-17T07:14:02;24.80;56.80
48648;DHT22;34437;-33.956;151.076;2022-10-17T07:16:25;24.80;56.90
48648;DHT22;34437;-33.956;151.076;2022-10-17T07:18:51;24.80;57.00
48648;DHT22;34437;-33.956;151.076;2022-10-17T07:21:15;24.70;57.10
48648;DHT22;34437;-33.956;151.076;2022-10-17T07:23:37;24.70;57.30
48648;DHT22;34437;-33.956;151.076;2022-10-17T07:26:05;24.70;57.20
48648;DHT22;34437;-33.956;151.076;2022-10-17T07:28:28;24.60;57.50
48648;DHT22;34437;-33.956;151.076;2022-10-17T07:30:51;24.60;57.20
48648;DHT22;34437;-33.956;151.076;2022-10-17T07:33:13;24.60;57.20
48648;DHT22;34437;-33.956;151.076;2022-10-17T07:35:37;24.60;57.20
48648;DHT22;34437;-33.956;151.076;2022-10-17T07:38:03;24.50;57.00
48648;DHT22;34437;-33.956;151.076;2022-10-17T07:40:26;24.50;57.40
48648;DHT22;34437;-33.956;151.076;2022-10-17T07:42:48;24.50;57.00
48648;DHT22;34437;-33.956;151.076;2022-10-17T07:45:12;24.50;57.00
48648;DHT22;34437;-33.956;151.076;2022-10-17T07:47:34;24.40;57.10
48648;DHT22;34437;-33.956;151.076;2022-10-17T07:49:57;24.40;57.00
48648;DHT22;34437;-33.956;151.076;2022-10-17T07:52:19;24.40;57.00
48648;DHT22;34437;-33.956;151.076;2022-10-17T07:54:42;24.40;56.90
48648;DHT22;34437;-33.956;151.076;2022-10-17T07:57:05;24.40;57.10
48648;DHT22;34437;-33.956;151.076;2022-10-17T07:59:28;24.30;56.90
48648;DHT22;34437;-33.956;151.076;2022-10-17T08:01:53;24.30;57.20
48648;DHT22;34437;-33.956;151.076;2022-10-17T08:04:16;24.30;57.20
48648;DHT22;34437;-33.956;151.076;2022-10-17T08:06:38;24.20;57.20
48648;DHT22;34437;-33.956;151.076;2022-10-17T08:09:01;24.20;57.30
48648;DHT22;34437;-33.956;151.076;2022-10-17T08:11:24;24.20;57.20
48648;DHT22;34437;-33.956;151.076;2022-10-17T08:13:46;24.20;57.20
48648;DHT22;34437;-33.956;151.076;2022-10-17T08:16:11;24.20;57.20
48648;DHT22;34437;-33.956;151.076;2022-10-17T08:18:34;24.10;57.20
48648;DHT22;34437;-33.956;151.076;2022-10-17T08:21:01;24.10;57.00
48648;DHT22;34437;-33.956;151.076;2022-10-17T08:23:26;24.10;57.10
48648;DHT22;34437;-33.956;151.076;2022-10-17T08:25:49;24.10;57.20
48648;DHT22;34437;-33.956;151.076;2022-10-17T08:28:11;24.10;57.20
48648;DHT22;34437;-33.956;151.076;2022-10-17T08:30:34;24.00;57.00
48648;DHT22;34437;-33.956;151.076;2022-10-17T08:32:56;24.00;57.00
48648;DHT22;34437;-33.956;151.076;2022-10-17T08:35:19;24.00;56.80
48648;DHT22;34437;-33.956;151.076;2022-10-17T08:37:42;24.00;56.80
48648;DHT22;34437;-33.956;151.076;2022-10-17T08:40:05;23.90;56.70
48648;DHT22;34437;-33.956;151.076;2022-10-17T08:48:18;23.80;56.80
48648;DHT22;34437;-33.956;151.076;2022-10-17T08:56:22;23.60;56.90
48648;DHT22;34437;-33.956;151.076;2022-10-17T08:58:45;23.60;56.90
48648;DHT22;34437;-33.956;151.076;2022-10-17T09:04:18;23.60;57.80
48648;DHT22;34437;-33.956;151.076;2022-10-17T09:09:51;23.50;57.20
48648;DHT22;34437;-33.956;151.076;2022-10-17T09:23:23;23.40;57.60
48648;DHT22;34437;-33.956;151.076;2022-10-17T09:26:04;23.40;57.60
48648;DHT22;34437;-33.956;151.076;2022-10-17T09:28:30;23.40;57.70
48648;DHT22;34437;-33.956;151.076;2022-10-17T09:31:04;23.40;57.70
48648;DHT22;34437;-33.956;151.076;2022-10-17T09:33:31;23.40;57.70
48648;DHT22;34437;-33.956;151.076;2022-10-17T09:35:55;23.40;57.80
48648;DHT22;34437;-33.956;151.076;2022-10-17T09:38:22;23.40;58.00
48648;DHT22;34437;-33.956;151.076;2022-10-17T09:40:50;23.30;58.10
48648;DHT22;34437;-33.956;151.076;2022-10-17T09:43:14;23.30;58.10
48648;DHT22;34437;-33.956;151.076;2022-10-17T09:46:02;23.30;58.10
48648;DHT22;34437;-33.956;151.076;2022-10-17T09:48:35;23.30;58.20
48648;DHT22;34437;-33.956;151.076;2022-10-17T09:50:59;23.30;58.20
48648;DHT22;34437;-33.956;151.076;2022-10-17T09:53:26;23.30;58.30
48648;DHT22;34437;-33.956;151.076;2022-10-17T09:56:00;23.20;58.30
48648;DHT22;34437;-33.956;151.076;2022-10-17T09:58:28;23.20;58.40
48648;DHT22;34437;-33.956;151.076;2022-10-17T10:01:16;23.20;58.50
48648;DHT22;34437;-33.956;151.076;2022-10-17T10:03:39;23.20;58.50
48648;DHT22;34437;-33.956;151.076;2022-10-17T10:06:12;23.10;58.50
48648;DHT22;34437;-33.956;151.076;2022-10-17T10:08:56;23.10;58.50
48648;DHT22;34437;-33.956;151.076;2022-10-17T10:11:50;23.10;58.60
48648;DHT22;34437;-33.956;151.076;2022-10-17T10:14:23;23.10;58.60
48648;DHT22;34437;-33.956;151.076;2022-10-17T10:16:50;23.10;58.70
48648;DHT22;34437;-33.956;151.076;2022-10-17T10:19:37;23.10;58.70
48648;DHT22;34437;-33.956;151.076;2022-10-17T10:22:02;23.00;58.80
48648;DHT22;34437;-33.956;151.076;2022-10-17T10:24:25;23.00;58.80
48648;DHT22;34437;-33.956;151.076;2022-10-17T10:26:49;23.00;58.80
48648;DHT22;34437;-33.956;151.076;2022-10-17T10:29:36;23.00;58.80
48648;DHT22;34437;-33.956;151.076;2022-10-17T10:32:21;23.00;58.90
48648;DHT22;34437;-33.956;151.076;2022-10-17T10:37:27;22.90;59.00
48648;DHT22;34437;-33.956;151.076;2022-10-17T10:39:54;22.90;59.00
48648;DHT22;34437;-33.956;151.076;2022-10-17T10:44:56;22.80;59.20
48648;DHT22;34437;-33.956;151.076;2022-10-17T10:47:21;22.80;59.20
48648;DHT22;34437;-33.956;151.076;2022-10-17T10:49:45;22.90;59.20
48648;DHT22;34437;-33.956;151.076;2022-10-17T10:52:10;22.90;59.20
48648;DHT22;34437;-33.956;151.076;2022-10-17T10:54:45;22.90;59.20
48648;DHT22;34437;-33.956;151.076;2022-10-17T10:57:13;22.90;59.30
48648;DHT22;34437;-33.956;151.076;2022-10-17T10:59:55;22.90;59.30
48648;DHT22;34437;-33.956;151.076;2022-10-17T11:12:46;23.00;59.30
48648;DHT22;34437;-33.956;151.076;2022-10-17T11:15:34;23.00;59.30
48648;DHT22;34437;-33.956;151.076;2022-10-17T11:18:04;23.00;59.40
48648;DHT22;34437;-33.956;151.076;2022-10-17T11:23:16;22.90;58.60
48648;DHT22;34437;-33.956;151.076;2022-10-17T11:25:45;22.90;58.60
48648;DHT22;34437;-33.956;151.076;2022-10-17T11:28:17;22.80;58.60
48648;DHT22;34437;-33.956;151.076;2022-10-17T11:33:08;22.80;58.90
48648;DHT22;34437;-33.956;151.076;2022-10-17T11:35:36;22.80;59.00
48648;DHT22;34437;-33.956;151.076;2022-10-17T11:40:50;22.70;59.20
48648;DHT22;34437;-33.956;151.076;2022-10-17T11:43:20;22.70;59.30
48648;DHT22;34437;-33.956;151.076;2022-10-17T11:45:52;22.70;59.30
48648;DHT22;34437;-33.956;151.076;2022-10-17T11:48:44;22.70;59.40
48648;DHT22;34437;-33.956;151.076;2022-10-17T11:51:10;22.70;59.40
48648;DHT22;34437;-33.956;151.076;2022-10-17T11:57:34;22.70;59.80
48648;DHT22;34437;-33.956;151.076;2022-10-17T11:59:44;22.70;59.80
48648;DHT22;34437;-33.956;151.076;2022-10-17T12:02:27;22.70;59.80
48648;DHT22;34437;-33.956;151.076;2022-10-17T12:07:50;22.60;59.80
48648;DHT22;34437;-33.956;151.076;2022-10-17T12:10:40;22.60;59.70
48648;DHT22;34437;-33.956;151.076;2022-10-17T12:15:49;22.60;59.40
48648;DHT22;34437;-33.956;151.076;2022-10-17T12:18:16;22.50;59.30
48648;DHT22;34437;-33.956;151.076;2022-10-17T12:20:39;22.50;59.40
48648;DHT22;34437;-33.956;151.076;2022-10-17T12:25:35;22.40;59.50
48648;DHT22;34437;-33.956;151.076;2022-10-17T12:28:13;22.40;59.60
48648;DHT22;34437;-33.956;151.076;2022-10-17T12:30:36;22.40;59.70
48648;DHT22;34437;-33.956;151.076;2022-10-17T12:35:43;22.40;59.70
48648;DHT22;34437;-33.956;151.076;2022-10-17T12:38:21;22.40;59.90
48648;DHT22;34437;-33.956;151.076;2022-10-17T12:46:04;22.40;60.00
48648;DHT22;34437;-33.956;151.076;2022-10-17T12:53:25;22.30;60.20
48648;DHT22;34437;-33.956;151.076;2022-10-17T12:55:58;22.30;60.30
48648;DHT22;34437;-33.956;151.076;2022-10-17T12:58:22;22.30;60.30
48648;DHT22;34437;-33.956;151.076;2022-10-17T13:00:52;22.30;60.50
48648;DHT22;34437;-33.956;151.076;2022-10-17T13:03:23;22.30;60.50
48648;DHT22;34437;-33.956;151.076;2022-10-17T20:06:04;19.90;62.30
48648;DHT22;34437;-33.956;151.076;2022-10-17T20:08:26;19.90;62.30
48648;DHT22;34437;-33.956;151.076;2022-10-17T20:10:49;19.90;62.50
48648;DHT22;34437;-33.956;151.076;2022-10-17T20:13:12;19.90;62.60
48648;DHT22;34437;-33.956;151.076;2022-10-17T20:15:35;19.90;62.60
48648;DHT22;34437;-33.956;151.076;2022-10-17T20:17:58;19.90;62.50
48648;DHT22;34437;-33.956;151.076;2022-10-17T20:20:21;19.90;63.30
48648;DHT22;34437;-33.956;151.076;2022-10-17T20:22:44;19.80;62.60
48648;DHT22;34437;-33.956;151.076;2022-10-17T20:25:06;19.80;62.70
48648;DHT22;34437;-33.956;151.076;2022-10-17T20:27:29;19.80;62.70
48648;DHT22;34437;-33.956;151.076;2022-10-17T20:29:52;19.90;62.90
48648;DHT22;34437;-33.956;151.076;2022-10-17T20:32:14;19.80;62.90
48648;DHT22;34437;-33.956;151.076;2022-10-17T20:34:37;19.80;62.80
48648;DHT22;34437;-33.956;151.076;2022-10-17T20:37:01;19.90;62.80
48648;DHT22;34437;-33.956;151.076;2022-10-17T20:39:23;19.90;63.00
48648;DHT22;34437;-33.956;151.076;2022-10-17T20:41:46;19.90;62.80
48648;DHT22;34437;-33.956;151.076;2022-10-17T20:44:10;19.90;63.00
48648;DHT22;34437;-33.956;151.076;2022-10-17T20:46:33;19.90;63.00
48648;DHT22;34437;-33.956;151.076;2022-10-17T20:48:56;19.90;63.10
48648;DHT22;34437;-33.956;151.076;2022-10-17T20:51:20;19.90;63.20
48648;DHT22;34437;-33.956;151.076;2022-10-17T20:53:42;19.90;63.30
48648;DHT22;34437;-33.956;151.076;2022-10-17T20:56:16;19.90;63.80
48648;DHT22;34437;-33.956;151.076;2022-10-17T20:58:38;19.90;64.10
48648;DHT22;34437;-33.956;151.076;2022-10-17T21:01:06;19.90;64.40
48648;DHT22;34437;-33.956;151.076;2022-10-17T21:03:29;19.90;64.40
48648;DHT22;34437;-33.956;151.076;2022-10-17T21:05:51;19.90;64.50
48648;DHT22;34437;-33.956;151.076;2022-10-17T21:08:14;19.90;64.70
48648;DHT22;34437;-33.956;151.076;2022-10-17T21:10:36;19.90;65.00
48648;DHT22;34437;-33.956;151.076;2022-10-17T21:12:59;20.00;64.90
48648;DHT22;34437;-33.956;151.076;2022-10-17T21:15:22;20.00;64.60
48648;DHT22;34437;-33.956;151.076;2022-10-17T21:17:44;20.00;64.60
48648;DHT22;34437;-33.956;151.076;2022-10-17T21:20:07;20.00;64.60
48648;DHT22;34437;-33.956;151.076;2022-10-17T21:22:31;20.00;64.90
48648;DHT22;34437;-33.956;151.076;2022-10-17T21:24:54;20.10;64.80
48648;DHT22;34437;-33.956;151.076;2022-10-17T21:27:18;20.10;64.60
48648;DHT22;34437;-33.956;151.076;2022-10-17T21:29:41;20.10;64.60
48648;DHT22;34437;-33.956;151.076;2022-10-17T21:32:03;20.10;64.20
48648;DHT22;34437;-33.956;151.076;2022-10-17T21:34:26;20.10;64.10
48648;DHT22;34437;-33.956;151.076;2022-10-17T21:36:49;20.00;63.90
48648;DHT22;34437;-33.956;151.076;2022-10-17T21:39:13;20.00;64.20
48648;DHT22;34437;-33.956;151.076;2022-10-17T21:41:36;20.00;64.50
48648;DHT22;34437;-33.956;151.076;2022-10-17T21:44:02;20.00;64.50
48648;DHT22;34437;-33.956;151.076;2022-10-17T21:46:25;20.00;64.00
48648;DHT22;34437;-33.956;151.076;2022-10-17T21:48:48;20.10;64.00
48648;DHT22;34437;-33.956;151.076;2022-10-17T21:51:17;20.00;63.90
48648;DHT22;34437;-33.956;151.076;2022-10-17T21:53:40;20.10;63.80
48648;DHT22;34437;-33.956;151.076;2022-10-17T21:56:09;20.00;63.90
48648;DHT22;34437;-33.956;151.076;2022-10-17T21:58:32;20.10;63.80
48648;DHT22;34437;-33.956;151.076;2022-10-17T22:01:10;20.10;64.00
48648;DHT22;34437;-33.956;151.076;2022-10-17T22:03:34;20.10;64.30
48648;DHT22;34437;-33.956;151.076;2022-10-17T22:05:57;20.10;64.40
48648;DHT22;34437;-33.956;151.076;2022-10-17T22:08:20;20.20;64.50
48648;DHT22;34437;-33.956;151.076;2022-10-17T22:10:42;20.20;64.50
48648;DHT22;34437;-33.956;151.076;2022-10-17T22:13:05;20.20;64.50
48648;DHT22;34437;-33.956;151.076;2022-10-17T22:15:28;20.30;64.50
48648;DHT22;34437;-33.956;151.076;2022-10-17T22:17:51;20.30;64.30
48648;DHT22;34437;-33.956;151.076;2022-10-17T22:20:14;20.40;64.40
48648;DHT22;34437;-33.956;151.076;2022-10-17T22:22:36;20.40;64.40
48648;DHT22;34437;-33.956;151.076;2022-10-17T22:24:59;20.40;64.30
48648;DHT22;34437;-33.956;151.076;2022-10-17T22:27:21;20.50;64.20
48648;DHT22;34437;-33.956;151.076;2022-10-17T22:29:44;20.50;63.90
48648;DHT22;34437;-33.956;151.076;2022-10-17T22:32:06;20.50;63.70
48648;DHT22;34437;-33.956;151.076;2022-10-17T22:34:29;20.50;63.70
48648;DHT22;34437;-33.956;151.076;2022-10-17T22:36:52;20.50;63.70
48648;DHT22;34437;-33.956;151.076;2022-10-17T22:39:14;20.50;63.70
48648;DHT22;34437;-33.956;151.076;2022-10-17T22:41:37;20.60;63.80
48648;DHT22;34437;-33.956;151.076;2022-10-17T22:44:00;20.60;63.80
48648;DHT22;34437;-33.956;151.076;2022-10-17T22:46:22;20.60;63.80
48648;DHT22;34437;-33.956;151.076;2022-10-17T22:48:45;20.60;63.70
48648;DHT22;34437;-33.956;151.076;2022-10-17T22:51:08;20.60;63.80
48648;DHT22;34437;-33.956;151.076;2022-10-17T22:53:31;20.60;63.80
48648;DHT22;34437;-33.956;151.076;2022-10-17T22:55:58;20.60;64.20
48648;DHT22;34437;-33.956;151.076;2022-10-17T22:58:21;20.70;64.30
48648;DHT22;34437;-33.956;151.076;2022-10-17T23:00:44;20.70;64.20
48648;DHT22;34437;-33.956;151.076;2022-10-17T23:03:06;20.80;64.20
48648;DHT22;34437;-33.956;151.076;2022-10-17T23:05:29;20.70;63.90
48648;DHT22;34437;-33.956;151.076;2022-10-17T23:07:51;20.80;63.90
48648;DHT22;34437;-33.956;151.076;2022-10-17T23:10:14;20.80;63.80
48648;DHT22;34437;-33.956;151.076;2022-10-17T23:12:37;20.70;63.70
48648;DHT22;34437;-33.956;151.076;2022-10-17T23:14:59;20.70;63.80
48648;DHT22;34437;-33.956;151.076;2022-10-17T23:17:22;20.70;63.80
48648;DHT22;34437;-33.956;151.076;2022-10-17T23:19:44;20.70;63.70
48648;DHT22;34437;-33.956;151.076;2022-10-17T23:22:07;20.80;63.80
48648;DHT22;34437;-33.956;151.076;2022-10-17T23:24:30;20.70;63.80
48648;DHT22;34437;-33.956;151.076;2022-10-17T23:26:53;20.70;63.80
48648;DHT22;34437;-33.956;151.076;2022-10-17T23:29:16;20.70;63.80
48648;DHT22;34437;-33.956;151.076;2022-10-17T23:31:38;20.70;63.90